Terminal Aerodrome Forecast
Issued by NWS

Home | Current Version | Previous Version | Text Only | Print | Product List | Glossary On
Versions: 1 2 3 4 5 6 7 8 9 10 11 12 13 14 15 16 17 18 19
194
FTUS43 KILX 082103 AAB
TAFDEC
TAF AMD
KDEC 082103Z 0821/0918 29014G22KT 3SM -SN BR OVC025
      TEMPO 0821/0822 1SM -SN BR
     FM082300 30013KT P6SM VCSH OVC015
     FM090800 31012KT 5SM -SN BR OVC015
     FM091600 31014G20KT 5SM -SN BR OVC025=

USA.gov is the U.S. government's official web portal to all federal, state and local government web resources and services.